sensor_id;sensor_type;location;lat;lon;timestamp;temperature;humidity
15158;DHT22;7679;48.796;9.056;2022-09-03T00:08:56;25.80;49.70
15158;DHT22;7679;48.796;9.056;2022-09-03T00:19:23;25.80;49.70
15158;DHT22;7679;48.796;9.056;2022-09-03T00:29:55;25.80;49.70
15158;DHT22;7679;48.796;9.056;2022-09-03T00:40:36;25.90;49.70
15158;DHT22;7679;48.796;9.056;2022-09-03T00:51:11;25.80;49.70
15158;DHT22;7679;48.796;9.056;2022-09-03T01:01:43;25.80;49.70
15158;DHT22;7679;48.796;9.056;2022-09-03T01:12:17;25.80;49.60
15158;DHT22;7679;48.796;9.056;2022-09-03T01:33:23;25.80;49.70
15158;DHT22;7679;48.796;9.056;2022-09-03T01:43:56;25.80;49.60
15158;DHT22;7679;48.796;9.056;2022-09-03T01:54:41;25.80;49.60
15158;DHT22;7679;48.796;9.056;2022-09-03T02:05:12;25.80;49.70
15158;DHT22;7679;48.796;9.056;2022-09-03T02:15:43;25.80;49.60
15158;DHT22;7679;48.796;9.056;2022-09-03T02:26:09;25.80;49.70
15158;DHT22;7679;48.796;9.056;2022-09-03T02:36:40;25.80;49.60
15158;DHT22;7679;48.796;9.056;2022-09-03T02:47:09;25.80;49.60
15158;DHT22;7679;48.796;9.056;2022-09-03T02:57:35;25.80;49.50
15158;DHT22;7679;48.796;9.056;2022-09-03T03:07:59;25.80;49.50
15158;DHT22;7679;48.796;9.056;2022-09-03T03:18:26;25.80;49.60
15158;DHT22;7679;48.796;9.056;2022-09-03T03:28:58;25.80;49.50
15158;DHT22;7679;48.796;9.056;2022-09-03T03:39:26;25.80;49.50
15158;DHT22;7679;48.796;9.056;2022-09-03T03:49:50;25.80;49.50
15158;DHT22;7679;48.796;9.056;2022-09-03T04:00:17;25.80;49.50
15158;DHT22;7679;48.796;9.056;2022-09-03T04:10:41;25.80;49.50
15158;DHT22;7679;48.796;9.056;2022-09-03T04:21:09;25.80;49.50
15158;DHT22;7679;48.796;9.056;2022-09-03T04:31:38;25.80;50.10
15158;DHT22;7679;48.796;9.056;2022-09-03T04:42:25;25.80;49.50
15158;DHT22;7679;48.796;9.056;2022-09-03T04:52:50;25.80;49.50
15158;DHT22;7679;48.796;9.056;2022-09-03T05:03:18;25.80;49.50
15158;DHT22;7679;48.796;9.056;2022-09-03T05:13:45;25.80;49.10
15158;DHT22;7679;48.796;9.056;2022-09-03T05:24:12;25.80;49.50
15158;DHT22;7679;48.796;9.056;2022-09-03T05:34:38;25.80;49.50
15158;DHT22;7679;48.796;9.056;2022-09-03T05:45:06;25.80;49.50
15158;DHT22;7679;48.796;9.056;2022-09-03T05:55:31;25.80;49.50
15158;DHT22;7679;48.796;9.056;2022-09-03T06:05:58;25.80;49.50
15158;DHT22;7679;48.796;9.056;2022-09-03T06:16:23;25.80;49.50
15158;DHT22;7679;48.796;9.056;2022-09-03T06:26:53;25.80;49.50
15158;DHT22;7679;48.796;9.056;2022-09-03T06:37:17;25.80;49.40
15158;DHT22;7679;48.796;9.056;2022-09-03T06:47:44;25.80;49.50
15158;DHT22;7679;48.796;9.056;2022-09-03T06:58:07;25.80;49.50
15158;DHT22;7679;48.796;9.056;2022-09-03T07:08:35;25.80;49.50
15158;DHT22;7679;48.796;9.056;2022-09-03T07:18:58;25.90;49.60
15158;DHT22;7679;48.796;9.056;2022-09-03T07:29:26;25.90;49.60
15158;DHT22;7679;48.796;9.056;2022-09-03T07:39:50;25.90;49.60
15158;DHT22;7679;48.796;9.056;2022-09-03T07:50:17;25.90;49.60
15158;DHT22;7679;48.796;9.056;2022-09-03T08:00:41;25.90;49.60
15158;DHT22;7679;48.796;9.056;2022-09-03T08:11:09;25.90;49.70
15158;DHT22;7679;48.796;9.056;2022-09-03T08:21:34;25.90;49.70
15158;DHT22;7679;48.796;9.056;2022-09-03T08:32:00;25.90;49.70
15158;DHT22;7679;48.796;9.056;2022-09-03T08:42:30;25.90;49.70
15158;DHT22;7679;48.796;9.056;2022-09-03T08:53:03;25.90;50.00
15158;DHT22;7679;48.796;9.056;2022-09-03T09:03:41;25.90;50.10
15158;DHT22;7679;48.796;9.056;2022-09-03T09:14:15;25.90;50.20
15158;DHT22;7679;48.796;9.056;2022-09-03T09:24:44;25.90;50.20
15158;DHT22;7679;48.796;9.056;2022-09-03T09:35:12;25.90;50.30
15158;DHT22;7679;48.796;9.056;2022-09-03T09:45:38;25.90;50.30
15158;DHT22;7679;48.796;9.056;2022-09-03T09:56:06;25.90;50.30
15158;DHT22;7679;48.796;9.056;2022-09-03T10:06:31;25.90;50.30
15158;DHT22;7679;48.796;9.056;2022-09-03T10:17:16;25.90;50.30
15158;DHT22;7679;48.796;9.056;2022-09-03T10:27:41;25.90;50.30
15158;DHT22;7679;48.796;9.056;2022-09-03T10:38:16;25.90;50.30
15158;DHT22;7679;48.796;9.056;2022-09-03T10:59:46;25.90;50.30
15158;DHT22;7679;48.796;9.056;2022-09-03T11:10:18;25.90;50.40
15158;DHT22;7679;48.796;9.056;2022-09-03T11:20:49;25.90;50.30
15158;DHT22;7679;48.796;9.056;2022-09-03T11:31:22;25.90;50.30
15158;DHT22;7679;48.796;9.056;2022-09-03T11:41:59;25.90;50.40
15158;DHT22;7679;48.796;9.056;2022-09-03T11:52:28;25.90;50.40
15158;DHT22;7679;48.796;9.056;2022-09-03T12:02:56;25.90;50.40
15158;DHT22;7679;48.796;9.056;2022-09-03T12:13:32;25.90;50.50
15158;DHT22;7679;48.796;9.056;2022-09-03T12:24:02;25.90;50.50
15158;DHT22;7679;48.796;9.056;2022-09-03T12:34:31;25.90;50.50
15158;DHT22;7679;48.796;9.056;2022-09-03T12:45:05;25.90;50.40
15158;DHT22;7679;48.796;9.056;2022-09-03T12:55:34;25.90;50.50
15158;DHT22;7679;48.796;9.056;2022-09-03T13:06:07;25.90;50.40
15158;DHT22;7679;48.796;9.056;2022-09-03T13:27:45;25.90;50.50
15158;DHT22;7679;48.796;9.056;2022-09-03T13:38:22;25.90;50.50
15158;DHT22;7679;48.796;9.056;2022-09-03T13:48:58;25.90;50.60
15158;DHT22;7679;48.796;9.056;2022-09-03T13:59:43;25.90;50.70
15158;DHT22;7679;48.796;9.056;2022-09-03T14:10:22;25.90;50.70
15158;DHT22;7679;48.796;9.056;2022-09-03T14:20:55;25.90;50.80
15158;DHT22;7679;48.796;9.056;2022-09-03T14:31:29;26.00;51.20
15158;DHT22;7679;48.796;9.056;2022-09-03T14:42:22;26.00;51.90
15158;DHT22;7679;48.796;9.056;2022-09-03T14:53:02;26.00;52.30
15158;DHT22;7679;48.796;9.056;2022-09-03T15:03:45;26.10;53.20
15158;DHT22;7679;48.796;9.056;2022-09-03T15:14:19;26.00;53.90
15158;DHT22;7679;48.796;9.056;2022-09-03T15:24:52;26.00;53.80
15158;DHT22;7679;48.796;9.056;2022-09-03T15:35:33;26.10;54.40
15158;DHT22;7679;48.796;9.056;2022-09-03T15:46:03;26.30;54.00
15158;DHT22;7679;48.796;9.056;2022-09-03T15:56:40;26.40;53.40
15158;DHT22;7679;48.796;9.056;2022-09-03T16:07:09;26.60;52.90
15158;DHT22;7679;48.796;9.056;2022-09-03T16:17:48;26.70;52.60
15158;DHT22;7679;48.796;9.056;2022-09-03T16:28:17;26.70;52.60
15158;DHT22;7679;48.796;9.056;2022-09-03T16:38:48;26.70;53.10
15158;DHT22;7679;48.796;9.056;2022-09-03T16:49:31;26.80;52.50
15158;DHT22;7679;48.796;9.056;2022-09-03T17:00:07;26.80;52.30
15158;DHT22;7679;48.796;9.056;2022-09-03T17:10:40;26.90;52.10
15158;DHT22;7679;48.796;9.056;2022-09-03T17:21:42;26.90;52.00
15158;DHT22;7679;48.796;9.056;2022-09-03T17:32:18;26.90;51.70
15158;DHT22;7679;48.796;9.056;2022-09-03T17:42:55;26.90;51.60
15158;DHT22;7679;48.796;9.056;2022-09-03T17:53:31;27.00;51.40
